Cervia Air Force Base LIPC

Flugplatz Daten

Name: Cervia Air Force Base

Ident: LIPC

Lat: 44,2242012

Long: 12,30720043

Platzhöhe: 18 ft

IataCode:

City: Cervia

Metar

2021/12/03 23:55
LIPC 032355Z 26007KT 9999 SCT050 03/01 Q1015

Taf

2013/12/14 06:24
TAF LIPC 140500Z 1406/1418 VRB03KT 5000 BR NSC
TEMPO 1406/1409 0500 BCFG SCT001
Gewünschte Webcam nicht vorhanden? Dann fügen Sie eine hinzu. Sie wird dann so schnell wie möglich freigeschaltet
Url: Title: